createdAt,value
2018-10-17T00:00:02.597Z,15.6
2018-10-17T00:05:02.306Z,15.6
2018-10-17T00:10:02.530Z,15.3
2018-10-17T00:15:03.074Z,15.3
2018-10-17T00:20:02.597Z,15.1
2018-10-17T00:25:03.444Z,15.3
2018-10-17T00:30:02.539Z,15.5
2018-10-17T00:35:03.212Z,15.1
2018-10-17T00:40:02.434Z,15.1
2018-10-17T00:45:03.055Z,15.1
2018-10-17T00:50:02.628Z,15.1
2018-10-17T00:55:03.223Z,15.0
2018-10-17T01:00:03.196Z,15.1
2018-10-17T01:05:02.831Z,15.1
2018-10-17T01:10:03.074Z,15.1
2018-10-17T01:15:02.676Z,14.8
2018-10-17T01:20:02.343Z,14.6
2018-10-17T01:25:03.111Z,14.3
2018-10-17T01:30:03.188Z,14.1
2018-10-17T01:35:02.947Z,14.1
2018-10-17T01:40:03.069Z,14.0
2018-10-17T01:45:02.644Z,14.0
2018-10-17T01:50:03.185Z,13.8
2018-10-17T01:55:02.794Z,13.8
2018-10-17T02:00:02.723Z,13.6
2018-10-17T02:05:03.218Z,13.6
2018-10-17T02:10:03.210Z,14.0
2018-10-17T02:15:02.777Z,13.8
2018-10-17T02:20:02.402Z,13.6
2018-10-17T02:25:03.089Z,13.5
2018-10-17T02:30:03.300Z,13.5
2018-10-17T02:35:02.977Z,13.5
2018-10-17T02:40:03.291Z,13.1
2018-10-17T02:45:02.922Z,13.1
2018-10-17T02:50:02.493Z,12.8
2018-10-17T02:55:03.169Z,12.8
2018-10-17T03:00:02.296Z,12.8
2018-10-17T03:05:02.993Z,12.6
2018-10-17T03:10:03.135Z,12.8
2018-10-17T03:15:02.799Z,12.8
2018-10-17T03:20:02.474Z,12.8
2018-10-17T03:25:03.163Z,12.8
2018-10-17T03:30:03.188Z,12.6
2018-10-17T03:35:02.978Z,12.5
2018-10-17T03:40:02.295Z,12.5
2018-10-17T03:45:02.942Z,12.6
2018-10-17T03:50:02.645Z,12.6
2018-10-17T03:55:03.036Z,12.6
2018-10-17T04:00:03.103Z,12.6
2018-10-17T04:05:02.816Z,12.6
2018-10-17T04:10:02.964Z,12.5
2018-10-17T04:15:02.533Z,12.6
2018-10-17T04:20:03.182Z,12.5
2018-10-17T04:25:02.785Z,12.5
2018-10-17T04:30:02.689Z,12.3
2018-10-17T04:35:02.317Z,12.1
2018-10-17T04:40:02.505Z,12.0
2018-10-17T04:45:03.196Z,12.0
2018-10-17T04:50:02.744Z,11.8
2018-10-17T04:55:02.367Z,11.8
2018-10-17T05:00:02.535Z,11.6
2018-10-17T05:05:03.158Z,11.6
2018-10-17T05:10:02.344Z,11.6
2018-10-17T05:15:02.966Z,11.6
2018-10-17T05:20:02.926Z,11.6
2018-10-17T05:25:02.604Z,11.6
2018-10-17T05:30:02.559Z,11.6
2018-10-17T05:35:03.233Z,11.6
2018-10-17T05:40:02.272Z,11.6
2018-10-17T05:45:02.840Z,11.6
2018-10-17T05:50:02.394Z,11.3
2018-10-17T05:55:02.991Z,11.1
2018-10-17T06:00:03.204Z,11.1
2018-10-17T06:05:02.900Z,11.1
2018-10-17T06:10:03.020Z,11.1
2018-10-17T06:15:02.835Z,11.0
2018-10-17T06:20:02.566Z,10.8
2018-10-17T06:25:03.238Z,11.1
2018-10-17T06:30:03.232Z,11.1
2018-10-17T06:35:02.933Z,11.3
2018-10-17T06:40:02.740Z,11.6
2018-10-17T06:45:02.425Z,11.6
2018-10-17T06:50:03.092Z,12.0
2018-10-17T06:55:02.766Z,12.1
2018-10-17T07:00:03.044Z,12.1
2018-10-17T07:05:02.875Z,12.1
2018-10-17T07:10:02.918Z,12.1
2018-10-17T07:15:02.545Z,12.1
2018-10-17T07:20:02.500Z,12.3
2018-10-17T07:25:03.139Z,12.6
2018-10-17T07:30:03.160Z,12.8
2018-10-17T07:35:02.834Z,12.8
2018-10-17T07:40:02.448Z,13.1
2018-10-17T07:45:03.115Z,13.1
2018-10-17T07:50:02.806Z,13.6
2018-10-17T07:55:02.385Z,13.6
2018-10-17T08:00:02.972Z,13.8
2018-10-17T08:05:03.190Z,14.1
2018-10-17T08:10:02.978Z,14.5
2018-10-17T08:15:02.845Z,15.1
2018-10-17T08:20:02.518Z,15.8
2018-10-17T08:25:03.198Z,16.3
2018-10-17T08:30:02.832Z,16.7
2018-10-17T08:35:03.091Z,16.3
2018-10-17T08:40:02.818Z,16.3
2018-10-17T08:45:02.573Z,17.2
2018-10-17T08:50:02.840Z,17.7
2018-10-17T08:55:02.918Z,18.1
2018-10-17T09:00:02.515Z,18.7
2018-10-17T09:05:03.193Z,18.7
2018-10-17T09:10:02.916Z,19.2
2018-10-17T09:15:02.472Z,19.5
2018-10-17T09:20:03.595Z,19.3
2018-10-17T09:25:02.417Z,19.3
2018-10-17T09:30:02.552Z,20.0
2018-10-17T09:35:02.821Z,20.7
2018-10-17T09:40:02.933Z,20.6
2018-10-17T09:45:03.041Z,20.2
2018-10-17T09:50:02.706Z,20.3
2018-10-17T09:55:02.302Z,21.8
2018-10-17T10:00:02.951Z,21.2
2018-10-17T10:05:02.286Z,21.3
2018-10-17T10:10:02.992Z,22.6
2018-10-17T10:15:03.156Z,21.3
2018-10-17T10:20:02.804Z,21.3
2018-10-17T10:25:02.418Z,22.5
2018-10-17T10:30:03.184Z,22.0
2018-10-17T10:35:02.946Z,22.7
2018-10-17T10:40:02.835Z,22.7
2018-10-17T10:45:02.876Z,21.0
2018-10-17T10:50:02.366Z,20.7
2018-10-17T10:55:02.632Z,20.1
2018-10-17T11:00:03.286Z,20.7
2018-10-17T11:05:02.524Z,21.0
2018-10-17T11:10:02.943Z,21.3
2018-10-17T11:15:02.626Z,21.5
2018-10-17T11:20:02.866Z,21.6
2018-10-17T11:25:02.493Z,21.0
2018-10-17T11:30:03.096Z,21.6
2018-10-17T11:35:02.687Z,21.8
2018-10-17T11:40:02.977Z,21.7
2018-10-17T11:45:03.002Z,22.5
2018-10-17T11:50:03.112Z,21.2
2018-10-17T11:55:02.661Z,21.5
2018-10-17T12:00:02.325Z,21.5
2018-10-17T12:05:03.153Z,22.5
2018-10-17T12:10:02.713Z,22.7
2018-10-17T12:15:02.276Z,22.5
2018-10-17T12:20:02.325Z,24.3
2018-10-17T12:25:02.982Z,24.8
2018-10-17T12:30:02.600Z,25.3
2018-10-17T12:35:02.871Z,24.7
2018-10-17T12:40:03.123Z,25.1
2018-10-17T12:45:02.397Z,25.6
2018-10-17T12:50:02.459Z,25.7
2018-10-17T12:55:02.402Z,24.5
2018-10-17T13:00:02.790Z,25.8
2018-10-17T13:05:02.445Z,24.7
2018-10-17T13:10:02.679Z,24.0
2018-10-17T13:15:02.387Z,24.5
2018-10-17T13:20:03.184Z,24.7
2018-10-17T13:25:02.879Z,24.5
2018-10-17T13:30:02.947Z,24.2
2018-10-17T13:35:02.681Z,25.0
2018-10-17T13:40:02.803Z,24.6
2018-10-17T13:45:02.477Z,24.8
2018-10-17T13:50:03.130Z,23.8
2018-10-17T13:55:02.817Z,24.0
2018-10-17T14:00:02.449Z,23.6
2018-10-17T14:05:03.269Z,23.7
2018-10-17T14:10:02.960Z,24.3
2018-10-17T14:15:02.585Z,23.8
2018-10-17T14:20:02.751Z,23.2
2018-10-17T14:25:02.363Z,23.0
2018-10-17T14:30:02.977Z,23.0
2018-10-17T14:35:03.254Z,23.6
2018-10-17T14:40:02.902Z,23.2
2018-10-17T14:45:02.606Z,23.0
2018-10-17T14:50:02.899Z,23.1
2018-10-17T14:55:02.497Z,22.7
2018-10-17T15:00:03.127Z,22.2
2018-10-17T15:05:02.861Z,21.8
2018-10-17T15:10:02.982Z,21.8
2018-10-17T15:15:02.466Z,21.7
2018-10-17T15:20:02.559Z,21.8
2018-10-17T15:25:03.141Z,21.6
2018-10-17T15:30:02.816Z,21.6
2018-10-17T15:35:02.834Z,22.0
2018-10-17T15:40:02.400Z,21.8
2018-10-17T15:45:03.130Z,21.3
2018-10-17T15:50:03.250Z,20.7
2018-10-17T15:55:02.811Z,20.3
2018-10-17T16:00:02.442Z,20.1
2018-10-17T16:05:02.751Z,20.1
2018-10-17T16:10:02.315Z,19.7
2018-10-17T16:15:02.939Z,19.7
2018-10-17T16:20:02.737Z,19.7
2018-10-17T16:25:02.791Z,19.2
2018-10-17T16:30:02.563Z,19.1
2018-10-17T16:35:02.857Z,18.8
2018-10-17T16:40:02.612Z,18.7
2018-10-17T16:45:03.203Z,18.6
2018-10-17T16:50:02.828Z,18.2
2018-10-17T16:55:02.323Z,18.1
2018-10-17T17:00:03.318Z,17.7
2018-10-17T17:05:02.515Z,17.5
2018-10-17T17:10:03.309Z,17.3
2018-10-17T17:15:02.915Z,17.1
2018-10-17T17:20:03.277Z,17.1
2018-10-17T17:25:02.891Z,17.1
2018-10-17T17:30:02.522Z,17.1
2018-10-17T17:35:02.551Z,17.1
2018-10-17T17:40:02.278Z,17.1
2018-10-17T17:45:02.939Z,17.0
2018-10-17T17:50:02.637Z,17.0
2018-10-17T17:55:03.241Z,16.7
2018-10-17T18:00:02.803Z,16.6
2018-10-17T18:05:02.412Z,16.2
2018-10-17T18:10:03.049Z,16.2
2018-10-17T18:15:03.262Z,16.0
2018-10-17T18:20:03.108Z,16.0
2018-10-17T18:25:02.752Z,16.0
2018-10-17T18:30:02.306Z,15.8
2018-10-17T18:35:02.939Z,15.8
2018-10-17T18:40:02.583Z,15.8
2018-10-17T18:45:02.630Z,15.8
2018-10-17T18:50:03.277Z,15.6
2018-10-17T18:55:02.861Z,15.6
2018-10-17T19:00:02.511Z,15.5
2018-10-17T19:05:03.169Z,15.5
2018-10-17T19:10:02.849Z,15.3
2018-10-17T19:15:02.475Z,15.1
2018-10-17T19:20:02.790Z,15.1
2018-10-17T19:25:02.408Z,15.1
2018-10-17T19:30:03.020Z,15.1
2018-10-17T19:35:02.815Z,15.0
2018-10-17T19:40:02.443Z,14.8
2018-10-17T19:45:03.233Z,14.6
2018-10-17T19:50:02.534Z,14.6
2018-10-17T19:55:03.093Z,14.5
2018-10-17T20:00:02.704Z,14.5
2018-10-17T20:05:02.302Z,14.5
2018-10-17T20:10:02.960Z,14.5
2018-10-17T20:15:02.567Z,14.3
2018-10-17T20:20:02.697Z,14.3
2018-10-17T20:25:02.300Z,14.3
2018-10-17T20:30:02.548Z,14.3
2018-10-17T20:35:03.283Z,14.3
2018-10-17T20:40:02.640Z,14.3
2018-10-17T20:45:03.241Z,14.3
2018-10-17T20:50:02.873Z,14.3
2018-10-17T20:55:02.911Z,14.1
2018-10-17T21:00:02.416Z,14.0
2018-10-17T21:05:03.168Z,14.0
2018-10-17T21:10:02.783Z,13.8
2018-10-17T21:15:02.416Z,13.8
2018-10-17T21:20:03.374Z,13.6
2018-10-17T21:25:02.574Z,13.6
2018-10-17T21:30:03.209Z,13.6
2018-10-17T21:35:02.858Z,13.6
2018-10-17T21:40:02.503Z,13.6
2018-10-17T21:45:03.102Z,13.6
2018-10-17T21:50:02.807Z,13.6
2018-10-17T21:55:02.960Z,13.6
2018-10-17T22:00:02.504Z,13.6
2018-10-17T22:05:03.056Z,13.6
2018-10-17T22:10:02.878Z,13.6
2018-10-17T22:15:02.545Z,13.6
2018-10-17T22:20:03.238Z,13.6
2018-10-17T22:25:02.450Z,13.6
2018-10-17T22:30:03.192Z,13.6
2018-10-17T22:35:02.705Z,13.6
2018-10-17T22:40:02.525Z,13.6
2018-10-17T22:45:03.165Z,13.5
2018-10-17T22:50:02.752Z,13.5
2018-10-17T22:55:02.996Z,13.5
2018-10-17T23:00:02.816Z,13.6
2018-10-17T23:05:03.027Z,13.5
2018-10-17T23:10:02.730Z,13.6
2018-10-17T23:15:02.301Z,13.6
2018-10-17T23:20:02.990Z,13.6
2018-10-17T23:25:02.311Z,13.8
2018-10-17T23:30:02.926Z,13.8
2018-10-17T23:35:02.531Z,14.0
2018-10-17T23:40:03.170Z,14.1
2018-10-17T23:45:02.772Z,14.0
2018-10-17T23:50:02.544Z,14.1
2018-10-17T23:55:02.741Z,14.1
